Time;durP1;ratioP1;P1;durP2;ratioP2;P2;SDS_P1;SDS_P2;PMS_P1;PMS_P2;Temp;Humidity;BMP_temperature;BMP_pressure;BME280_temperature;BME280_humidity;BME280_pressure;Samples;Min_cycle;Max_cycle;Signal;HPM_P1;HPM_P2
2022/05/21 00:01:17;;;;;;;7.68;2.95;;;;;;;17.88;64.42;101242.41;2093599;28;20055;-72
2022/05/21 00:02:39;;;;;;;10.13;2.78;;;;;;;17.89;64.36;101241.50;2100565;28;20131;-72
2022/05/21 00:04:03;;;;;;;13.73;3.00;;;;;;;17.89;64.26;101241.50;2108199;28;20048;-72
2022/05/21 00:05:27;;;;;;;11.80;2.70;;;;;;;17.85;64.21;101235.28;2110350;28;20070;-72
2022/05/21 00:06:49;;;;;;;11.57;3.47;;;;;;;17.84;64.25;101237.97;2102297;28;20082;-72
2022/05/21 00:08:10;;;;;;;14.20;3.38;;;;;;;17.81;64.31;101233.53;2102200;28;20056;-72
2022/05/21 00:09:33;;;;;;;10.13;3.10;;;;;;;17.79;64.27;101232.66;2098812;28;20039;-72
2022/05/21 00:10:55;;;;;;;5.93;3.08;;;;;;;17.76;64.22;101240.69;2099427;28;20060;-72
2022/05/21 00:12:20;;;;;;;9.27;2.80;;;;;;;17.73;64.25;101230.03;2099403;28;20047;-72
2022/05/21 00:13:44;;;;;;;11.95;2.92;;;;;;;17.64;64.38;101229.22;2108128;28;20044;-72
2022/05/21 00:15:08;;;;;;;9.02;3.05;;;;;;;17.61;64.49;101224.75;2109648;28;20628;-72
2022/05/21 00:16:31;;;;;;;9.43;3.35;;;;;;;17.60;64.51;101235.41;2110301;28;20359;-72
2022/05/21 00:17:53;;;;;;;7.20;2.40;;;;;;;17.60;64.53;101238.97;2110359;28;20040;-72
2022/05/21 00:19:17;;;;;;;8.75;2.88;;;;;;;17.62;64.79;101231.00;2110474;28;20051;-72
2022/05/21 00:20:50;;;;;;;8.23;2.90;;;;;;;17.61;64.78;101232.78;2102047;28;20081;-72
2022/05/21 00:22:12;;;;;;;9.15;2.95;;;;;;;17.61;64.81;101239.88;2110296;28;20167;-72
2022/05/21 00:23:35;;;;;;;10.65;3.15;;;;;;;17.60;64.74;101230.94;2101771;28;20044;-72
2022/05/21 00:24:58;;;;;;;8.38;2.88;;;;;;;17.61;64.79;101238.09;2096379;28;20048;-71
2022/05/21 00:26:21;;;;;;;11.07;3.00;;;;;;;17.62;64.75;101239.00;2096092;28;20508;-72
2022/05/21 00:27:45;;;;;;;12.30;4.18;;;;;;;17.64;64.78;101231.88;2099736;28;20139;-72
2022/05/21 00:29:07;;;;;;;9.27;4.20;;;;;;;17.62;64.77;101231.88;2102288;28;20051;-72
2022/05/21 00:30:30;;;;;;;14.45;3.33;;;;;;;17.63;64.79;101232.78;2098749;28;20044;-73
2022/05/21 00:31:52;;;;;;;12.05;2.75;;;;;;;17.62;64.76;101231.88;2099258;28;20167;-72
2022/05/21 00:33:15;;;;;;;10.32;2.60;;;;;;;17.62;64.81;101231.00;2099396;28;20048;-71
2022/05/21 00:34:37;;;;;;;11.93;3.47;;;;;;;17.60;64.92;101222.94;2098769;28;20052;-72
2022/05/21 00:35:59;;;;;;;12.60;3.25;;;;;;;17.60;65.02;101228.28;2107736;28;20058;-72
2022/05/21 00:37:22;;;;;;;10.30;3.10;;;;;;;17.62;65.19;101225.66;2110056;28;20047;-72
2022/05/21 00:38:45;;;;;;;9.02;2.83;;;;;;;17.64;65.20;101221.19;2109978;28;20051;-71
2022/05/21 00:40:09;;;;;;;10.25;2.80;;;;;;;17.66;65.13;101228.28;2109617;28;20051;-72
2022/05/21 00:41:32;;;;;;;7.90;3.20;;;;;;;17.63;65.10;101222.97;2108829;28;20048;-72
2022/05/21 00:42:55;;;;;;;12.57;4.00;;;;;;;17.61;65.17;101227.44;2110144;28;20462;-72
2022/05/21 00:44:18;;;;;;;9.57;3.28;;;;;;;17.59;65.22;101225.66;2110431;28;20048;-72
2022/05/21 00:45:39;;;;;;;11.32;3.00;;;;;;;17.58;65.36;101223.88;2110504;28;20134;-73
2022/05/21 00:47:02;;;;;;;10.25;2.78;;;;;;;17.56;65.47;101220.31;2103186;28;20054;-72
2022/05/21 00:48:24;;;;;;;9.45;3.22;;;;;;;17.54;65.60;101229.22;2102192;28;20136;-72
2022/05/21 00:49:48;;;;;;;14.10;3.75;;;;;;;17.53;65.80;101231.88;2101902;28;20044;-72
2022/05/21 00:51:16;;;;;;;9.85;2.88;;;;;;;17.50;65.88;101224.78;2101441;28;20178;-72
2022/05/21 00:52:41;;;;;;;8.75;2.60;;;;;;;17.49;65.95;101225.69;2102720;28;20114;-72
2022/05/21 00:54:06;;;;;;;18.15;3.35;;;;;;;17.47;66.06;101221.25;2110659;28;20048;-72
2022/05/21 00:55:33;;;;;;;13.57;3.45;;;;;;;17.46;66.13;101220.34;2102818;28;20075;-72
2022/05/21 00:56:59;;;;;;;13.48;3.42;;;;;;;17.47;66.23;101219.47;2095654;28;20493;-73
2022/05/21 01:00:10;;;;;;;10.05;2.78;;;;;;;17.44;66.20;101218.59;2104415;28;20054;-73
2022/05/21 01:01:38;;;;;;;9.88;2.80;;;;;;;17.41;66.23;101227.50;2104317;28;20048;-73
2022/05/21 01:03:00;;;;;;;12.60;3.30;;;;;;;17.41;66.38;101218.59;2104235;28;20142;-73
2022/05/21 01:04:23;;;;;;;10.75;3.08;;;;;;;17.41;66.32;101213.25;2103341;28;20073;-72
2022/05/21 01:05:48;;;;;;;15.77;4.63;;;;;;;17.43;66.39;101217.72;2103006;28;20081;-72
2022/05/21 01:07:11;;;;;;;10.80;2.78;;;;;;;17.42;66.48;101218.59;2103567;28;20052;-72
2022/05/21 01:08:33;;;;;;;9.65;2.60;;;;;;;17.42;66.44;101210.59;2095134;28;20380;-73
2022/05/21 01:09:57;;;;;;;12.10;3.17;;;;;;;17.42;66.43;101218.59;2100491;28;20559;-72
2022/05/21 01:11:19;;;;;;;10.35;3.38;;;;;;;17.39;66.54;101207.94;2095172;28;20049;-72
2022/05/21 01:12:47;;;;;;;9.88;3.05;;;;;;;17.39;66.38;101207.94;2098913;28;20044;-73
2022/05/21 01:14:13;;;;;;;6.75;2.90;;;;;;;17.40;66.59;101208.81;2097505;28;20123;-72
2022/05/21 01:15:40;;;;;;;12.15;3.00;;;;;;;17.37;66.60;101204.41;2093332;28;20037;-72
2022/05/21 01:17:03;;;;;;;12.75;3.08;;;;;;;17.34;66.73;101204.41;2101801;28;20097;-72
2022/05/21 01:18:25;;;;;;;14.30;4.47;;;;;;;17.32;66.74;101203.53;2103419;28;20102;-72
2022/05/21 01:20:00;;;;;;;10.60;3.03;;;;;;;17.31;66.71;101204.44;2111459;28;20129;-72
2022/05/21 01:21:24;;;;;;;9.07;2.80;;;;;;;17.28;66.82;101204.44;2098327;28;20078;-72
2022/05/21 01:22:49;;;;;;;9.88;2.90;;;;;;;17.27;66.77;101205.31;2111675;28;20048;-72
2022/05/21 01:24:13;;;;;;;9.07;3.25;;;;;;;17.24;66.84;101204.47;2103989;28;20431;-72
2022/05/21 01:25:38;;;;;;;10.43;3.05;;;;;;;17.23;66.94;101202.69;2108448;28;20051;-72
2022/05/21 01:27:00;;;;;;;16.20;2.78;;;;;;;17.24;67.02;101201.81;2111457;28;20136;-72
2022/05/21 01:28:25;;;;;;;13.40;3.55;;;;;;;17.22;67.17;101204.47;2114539;28;20036;-72
2022/05/21 01:29:52;;;;;;;8.88;3.15;;;;;;;17.21;67.38;101197.34;2114222;28;20129;-72
2022/05/21 01:31:15;;;;;;;15.10;3.17;;;;;;;17.21;67.45;101200.00;2112025;28;20047;-72
2022/05/21 01:32:38;;;;;;;7.78;2.50;;;;;;;17.20;67.42;101200.06;2111755;28;20079;-72
2022/05/21 01:34:00;;;;;;;9.63;2.80;;;;;;;17.12;67.62;101200.06;2111353;28;20143;-72
2022/05/21 01:35:22;;;;;;;12.00;3.30;;;;;;;17.10;67.85;101204.53;2111372;28;20077;-72
2022/05/21 01:36:45;;;;;;;9.02;3.40;;;;;;;17.12;67.80;101208.09;2111653;28;20645;-72
2022/05/21 01:38:09;;;;;;;9.25;3.20;;;;;;;17.13;67.80;101199.19;2103276;28;20419;-72
2022/05/21 01:39:32;;;;;;;14.35;2.97;;;;;;;17.13;67.97;101196.53;2108039;28;20040;-72
2022/05/21 01:40:53;;;;;;;14.00;4.28;;;;;;;17.11;67.99;101198.31;2102651;28;20056;-72
2022/05/21 01:42:16;;;;;;;15.45;3.30;;;;;;;17.10;68.05;101189.41;2108962;28;20066;-72
2022/05/21 01:45:17;;;;;;;7.53;2.85;;;;;;;17.11;68.12;101198.31;2105341;28;20051;-71
2022/05/21 01:46:40;;;;;;;10.90;2.85;;;;;;;17.04;68.26;101192.09;2108644;28;20415;-73
2022/05/21 01:48:03;;;;;;;11.02;3.20;;;;;;;17.02;68.39;101196.53;2119605;27;20049;-72
2022/05/21 01:49:25;;;;;;;11.18;3.40;;;;;;;17.05;68.31;101193.00;2113935;28;20252;-72
2022/05/21 01:50:48;;;;;;;12.43;3.67;;;;;;;17.05;68.36;101187.66;2114338;28;20063;-72
2022/05/21 01:52:13;;;;;;;10.63;3.15;;;;;;;17.05;68.34;101188.53;2094505;28;20049;-72
2022/05/21 01:53:39;;;;;;;14.02;3.05;;;;;;;17.03;68.33;101186.75;2107753;28;20345;-72
2022/05/21 01:55:02;;;;;;;11.32;3.22;;;;;;;16.99;68.38;101191.25;2102476;28;20055;-73
2022/05/21 01:56:25;;;;;;;9.77;2.60;;;;;;;16.95;68.39;101192.13;2111419;28;20095;-72
2022/05/21 01:57:46;;;;;;;14.15;3.28;;;;;;;16.95;68.42;101188.56;2094643;28;20048;-72
2022/05/21 01:59:10;;;;;;;8.27;2.85;;;;;;;16.96;68.59;101190.34;2097616;28;20106;-72
2022/05/21 02:00:32;;;;;;;9.07;2.70;;;;;;;16.94;68.53;101189.44;2108882;28;20058;-72
2022/05/21 02:01:56;;;;;;;11.07;2.65;;;;;;;16.86;68.80;101196.63;2110937;28;20075;-73
2022/05/21 02:03:18;;;;;;;8.05;2.50;;;;;;;16.77;68.87;101192.19;2102939;28;20143;-72
2022/05/21 02:04:41;;;;;;;7.72;3.00;;;;;;;16.63;68.89;101192.22;2098359;28;20073;-72
2022/05/21 02:06:03;;;;;;;14.75;3.22;;;;;;;16.53;69.45;101190.44;2100260;28;20139;-72
2022/05/21 02:07:25;;;;;;;;;;;;;;;16.53;69.21;101187.78;2103409;28;20551;-72
2022/05/21 02:08:49;;;;;;;7.70;2.80;;;;;;;16.46;69.35;101188.69;2102763;28;20312;-71
2022/05/21 02:10:11;;;;;;;10.98;2.65;;;;;;;16.43;69.39;101182.44;2094650;28;20036;-72
2022/05/21 02:11:33;;;;;;;10.15;3.28;;;;;;;16.44;69.42;101173.56;2100127;28;20052;-72
2022/05/21 02:12:55;;;;;;;9.38;3.05;;;;;;;16.48;69.32;101178.88;2102887;28;20044;-72
2022/05/21 02:14:17;;;;;;;11.77;3.90;;;;;;;16.52;69.26;101175.34;2094540;28;20062;-72
2022/05/21 02:15:39;;;;;;;12.80;3.08;;;;;;;16.53;69.30;101174.44;2099866;28;20036;-72
2022/05/21 02:17:02;;;;;;;9.13;3.15;;;;;;;16.55;69.25;101174.44;2102774;28;20504;-72
2022/05/21 02:18:23;;;;;;;6.82;2.97;;;;;;;16.59;69.30;101177.09;2102043;28;20044;-72
2022/05/21 02:19:46;;;;;;;9.88;3.25;;;;;;;16.60;69.24;101178.03;2108452;28;20043;-72
2022/05/21 02:21:08;;;;;;;7.05;3.00;;;;;;;16.55;69.30;101177.09;2110723;28;20051;-73
2022/05/21 02:22:30;;;;;;;11.60;2.92;;;;;;;16.52;69.42;101177.13;2113456;28;20052;-73
2022/05/21 02:23:54;;;;;;;14.20;3.50;;;;;;;16.54;69.39;101176.19;2111040;28;20682;-72
2022/05/21 02:25:17;;;;;;;15.07;3.40;;;;;;;16.54;69.39;101178.88;2102863;28;20070;-72
2022/05/21 02:26:41;;;;;;;9.75;2.97;;;;;;;16.50;69.35;101190.44;2108602;28;20047;-72
2022/05/21 02:28:02;;;;;;;9.52;2.80;;;;;;;16.46;69.47;101183.34;2103047;28;20052;-72
2022/05/21 02:29:25;;;;;;;8.95;3.15;;;;;;;16.38;69.42;101187.78;2099617;28;20067;-73
2022/05/21 02:30:46;;;;;;;8.23;3.03;;;;;;;16.19;69.63;101183.38;2108744;28;20047;-73
2022/05/21 02:32:10;;;;;;;13.15;2.60;;;;;;;16.07;69.90;101186.03;2113760;28;20452;-73
2022/05/21 02:33:33;;;;;;;12.93;3.05;;;;;;;16.02;70.26;101179.81;2101996;28;20455;-72
2022/05/21 02:34:54;;;;;;;10.05;2.85;;;;;;;16.09;70.22;101184.25;2111240;28;20067;-72
2022/05/21 02:36:17;;;;;;;9.25;2.72;;;;;;;16.13;70.15;101183.38;2110718;28;20073;-72
2022/05/21 02:39:28;;;;;;;12.40;3.20;;;;;;;16.17;70.05;101190.47;2105359;28;20568;-73
2022/05/21 02:40:51;;;;;;;8.50;2.78;;;;;;;16.21;69.99;101189.59;2096997;28;20505;-72
2022/05/21 02:43:50;;;;;;;11.15;3.30;;;;;;;16.28;69.85;101189.56;2103667;28;20040;-72
2022/05/21 02:45:13;;;;;;;15.50;3.83;;;;;;;16.31;69.56;101191.34;2108587;28;20055;-72
2022/05/21 02:46:36;;;;;;;16.13;3.85;;;;;;;16.34;69.38;101194.03;2110892;28;20126;-72
2022/05/21 02:47:59;;;;;;;8.43;2.75;;;;;;;16.33;69.19;101195.81;2105086;28;20083;-72
2022/05/21 02:49:22;;;;;;;7.55;4.00;;;;;;;16.30;69.21;101192.25;2111210;28;20530;-72
2022/05/21 02:50:45;;;;;;;10.18;2.67;;;;;;;16.26;69.32;101201.13;2110712;28;20483;-73
2022/05/21 02:52:06;;;;;;;8.20;2.95;;;;;;;16.25;69.37;101194.03;2110606;28;20048;-72
2022/05/21 02:53:29;;;;;;;8.00;2.83;;;;;;;16.25;69.34;101202.03;2107567;28;20075;-72
2022/05/21 02:54:52;;;;;;;13.32;3.38;;;;;;;16.26;69.43;101196.69;2108288;28;20095;-72
2022/05/21 02:56:15;;;;;;;10.07;3.60;;;;;;;16.24;69.42;101198.47;2102498;28;20157;-72
2022/05/21 02:57:36;;;;;;;9.80;3.05;;;;;;;16.24;69.57;101195.81;2110635;28;20041;-72
2022/05/21 02:58:59;;;;;;;;;;;;;;;16.26;69.64;101193.16;2108442;28;20130;-71
2022/05/21 03:00:25;;;;;;;22.42;3.70;;;;;;;16.28;69.68;101188.69;2113566;28;20032;-72
2022/05/21 03:01:48;;;;;;;12.30;3.63;;;;;;;16.30;69.85;101192.25;2111449;28;20051;-72
2022/05/21 03:03:11;;;;;;;11.55;4.47;;;;;;;16.29;69.83;101190.47;2119356;27;20078;-73
2022/05/21 03:04:34;;;;;;;15.68;3.80;;;;;;;16.30;70.01;101194.91;2113328;28;20059;-73
2022/05/21 03:05:56;;;;;;;9.48;3.50;;;;;;;16.31;70.11;101196.69;2102398;28;20073;-72
2022/05/21 03:07:18;;;;;;;10.73;3.17;;;;;;;16.31;70.19;101194.91;2102314;28;20040;-72
2022/05/21 03:10:23;;;;;;;10.10;3.33;;;;;;;16.28;70.34;101194.91;2089566;28;20049;-73
2022/05/21 03:11:44;;;;;;;9.27;2.42;;;;;;;16.30;70.20;101195.78;2108298;28;20057;-72
2022/05/21 03:13:08;;;;;;;10.25;2.72;;;;;;;16.33;70.23;101197.59;2109450;28;20039;-71
2022/05/21 03:14:29;;;;;;;10.20;2.88;;;;;;;16.32;70.11;101202.03;2102554;28;20040;-72
2022/05/21 03:15:52;;;;;;;12.30;3.33;;;;;;;16.31;70.34;101200.25;2107680;28;20044;-72
2022/05/21 03:17:13;;;;;;;12.55;3.15;;;;;;;16.35;70.29;101202.00;2102284;28;20060;-72
2022/05/21 03:18:37;;;;;;;9.77;2.92;;;;;;;16.39;70.38;101202.91;2099231;28;20377;-73
2022/05/21 03:19:58;;;;;;;6.35;2.85;;;;;;;16.42;70.30;101202.00;2108258;28;20055;-72
2022/05/21 03:21:20;;;;;;;10.05;2.67;;;;;;;16.45;70.29;101202.00;2102101;28;20555;-72
2022/05/21 03:22:43;;;;;;;12.93;2.58;;;;;;;16.48;70.12;101208.19;2099777;28;20096;-71
2022/05/21 03:24:06;;;;;;;7.72;2.88;;;;;;;16.51;70.18;101216.22;2107882;28;20634;-72
2022/05/21 03:25:32;;;;;;;8.02;2.83;;;;;;;16.56;70.25;101208.19;2110767;28;20058;-73
2022/05/21 03:26:55;;;;;;;13.77;3.25;;;;;;;16.59;70.24;101210.88;2105121;28;20150;-72
2022/05/21 03:28:20;;;;;;;9.10;3.13;;;;;;;16.64;70.18;101212.66;2108035;28;20051;-71
2022/05/21 03:29:42;;;;;;;11.43;2.83;;;;;;;16.67;70.19;101215.31;2112940;28;20084;-71
2022/05/21 03:31:04;;;;;;;9.23;3.15;;;;;;;16.71;70.01;101216.19;2110738;28;20045;-71
2022/05/21 03:32:26;;;;;;;8.43;2.97;;;;;;;16.72;70.05;101210.88;2109113;28;20067;-72
2022/05/21 03:33:48;;;;;;;7.47;2.75;;;;;;;16.74;69.95;101211.75;2110666;28;20067;-72
2022/05/21 03:35:12;;;;;;;10.63;2.60;;;;;;;16.80;70.05;101215.31;2104312;28;20105;-71
2022/05/21 03:36:34;;;;;;;7.72;2.65;;;;;;;16.80;70.00;101213.53;2110384;28;20525;-72
2022/05/21 03:37:57;;;;;;;9.75;3.22;;;;;;;16.85;70.04;101214.41;2096517;28;20059;-72
2022/05/21 03:39:19;;;;;;;14.15;2.97;;;;;;;16.88;69.93;101206.38;2091540;28;20067;-72
2022/05/21 03:40:43;;;;;;;14.43;2.90;;;;;;;16.95;69.90;101215.22;2110266;28;20044;-71
2022/05/21 03:42:05;;;;;;;8.82;2.78;;;;;;;16.97;69.72;101213.47;2096705;28;20044;-72
2022/05/21 03:43:28;;;;;;;9.38;3.03;;;;;;;16.98;69.74;101209.91;2102423;28;20101;-72
2022/05/21 03:44:50;;;;;;;6.85;2.33;;;;;;;17.01;69.72;101212.53;2093620;28;20109;-72
2022/05/21 03:46:13;;;;;;;8.75;2.40;;;;;;;17.00;69.77;101206.31;2107975;28;20047;-72
2022/05/21 03:47:36;;;;;;;18.38;2.97;;;;;;;17.03;69.88;101214.31;2092870;28;20500;-72
2022/05/21 03:48:59;;;;;;;11.45;3.33;;;;;;;17.07;69.93;101212.53;2105826;28;20048;-73
2022/05/21 03:50:24;;;;;;;12.02;3.03;;;;;;;17.15;70.01;101213.38;2119132;28;20072;-72
2022/05/21 03:51:47;;;;;;;11.15;2.35;;;;;;;17.21;70.08;101220.47;2104577;28;20048;-72
2022/05/21 03:53:10;;;;;;;9.98;2.35;;;;;;;17.27;70.06;101217.78;2099357;28;20047;-72
2022/05/21 03:54:32;;;;;;;9.07;2.65;;;;;;;17.31;69.94;101215.09;2116663;28;20514;-72
2022/05/21 03:55:56;;;;;;;13.02;3.70;;;;;;;17.34;69.93;101219.53;2102509;28;20044;-72
2022/05/21 03:57:19;;;;;;;7.57;2.53;;;;;;;17.42;69.99;101213.25;2100073;28;20417;-72
2022/05/21 03:58:40;;;;;;;7.97;2.67;;;;;;;17.57;69.94;101212.31;2110476;28;20043;-72
2022/05/21 04:00:05;;;;;;;11.55;3.20;;;;;;;17.69;69.84;101214.94;2110201;28;20442;-72
2022/05/21 04:01:34;;;;;;;16.77;4.55;;;;;;;17.86;69.72;101217.47;2111385;28;20052;-72
2022/05/21 04:02:59;;;;;;;8.82;2.85;;;;;;;18.00;69.47;101218.25;2105426;28;20427;-72
2022/05/21 04:04:23;;;;;;;8.00;2.15;;;;;;;18.14;69.20;101216.38;2104824;28;20044;-72
2022/05/21 04:05:46;;;;;;;7.60;3.20;;;;;;;18.24;68.96;101212.75;2101863;28;20143;-72
2022/05/21 04:07:10;;;;;;;11.32;3.13;;;;;;;18.37;68.62;101220.66;2110756;28;20056;-72
2022/05/21 04:08:32;;;;;;;9.98;2.35;;;;;;;18.48;68.43;101219.63;2113271;28;20064;-72
2022/05/21 04:09:54;;;;;;;8.93;2.50;;;;;;;18.61;68.10;101218.66;2104668;28;20052;-72
2022/05/21 04:11:18;;;;;;;7.95;2.67;;;;;;;18.78;67.94;101218.47;2102113;28;20567;-72
2022/05/21 04:12:42;;;;;;;9.50;2.13;;;;;;;18.92;67.65;101216.53;2096526;28;20083;-72
2022/05/21 04:14:03;;;;;;;9.55;2.97;;;;;;;19.05;67.39;101214.59;2099579;28;20048;-72
2022/05/21 04:15:26;;;;;;;9.18;2.33;;;;;;;19.15;66.97;101212.72;2110208;28;20048;-72
2022/05/21 04:16:48;;;;;;;8.38;2.25;;;;;;;19.25;66.86;101217.03;2104751;28;20092;-72
2022/05/21 04:18:10;;;;;;;7.65;2.38;;;;;;;19.33;66.79;101212.47;2102047;28;20449;-73
2022/05/21 04:19:33;;;;;;;11.02;3.15;;;;;;;19.37;66.47;101217.75;2105272;28;20043;-72
2022/05/21 04:20:58;;;;;;;10.35;2.22;;;;;;;19.41;66.19;101221.28;2110902;28;20047;-72
2022/05/21 04:22:19;;;;;;;11.02;2.47;;;;;;;19.48;66.21;101226.59;2108769;28;20048;-73
2022/05/21 04:23:42;;;;;;;5.40;2.10;;;;;;;19.58;65.83;101221.97;2110241;28;20047;-72
2022/05/21 04:25:06;;;;;;;7.63;2.10;;;;;;;19.64;65.31;101211.16;2110352;28;20047;-73
2022/05/21 04:26:31;;;;;;;10.60;2.30;;;;;;;19.74;65.24;101212.81;2110745;28;20047;-72
2022/05/21 04:27:53;;;;;;;10.13;2.38;;;;;;;19.87;65.07;101222.44;2110739;28;20043;-72
2022/05/21 04:29:16;;;;;;;7.85;2.10;;;;;;;20.02;64.65;101220.44;2101631;28;20117;-72
2022/05/21 04:30:39;;;;;;;9.27;2.05;;;;;;;20.12;64.45;101212.22;2107950;28;20047;-72
2022/05/21 04:32:00;;;;;;;8.98;2.83;;;;;;;20.14;63.95;101215.78;2110533;28;20100;-72
2022/05/21 04:33:23;;;;;;;9.40;2.15;;;;;;;20.10;63.71;101215.81;2101573;28;20515;-72
2022/05/21 04:34:44;;;;;;;7.88;2.00;;;;;;;20.04;63.73;101223.97;2107409;28;20040;-72
2022/05/21 04:36:19;;;;;;;6.93;1.90;;;;;;;19.98;63.52;101222.28;2100212;28;20059;-72
2022/05/21 04:37:41;;;;;;;8.10;1.80;;;;;;;19.92;63.77;101218.81;2104330;28;20517;-72
2022/05/21 04:39:04;;;;;;;9.73;2.30;;;;;;;19.88;63.64;101220.66;2097610;28;20045;-72
2022/05/21 04:40:26;;;;;;;9.32;2.30;;;;;;;19.84;63.69;101216.22;2103671;28;20138;-72
2022/05/21 04:41:50;;;;;;;7.57;2.20;;;;;;;19.80;63.64;101223.44;2107928;28;20039;-73
2022/05/21 04:43:12;;;;;;;12.00;2.60;;;;;;;19.78;63.67;101227.94;2105794;28;20052;-72
2022/05/21 04:44:35;;;;;;;7.68;2.17;;;;;;;19.74;63.97;101219.97;2109482;28;20081;-72
2022/05/21 04:45:58;;;;;;;8.93;2.33;;;;;;;19.74;63.90;101220.84;2103339;28;20048;-72
2022/05/21 04:47:20;;;;;;;12.82;2.47;;;;;;;19.70;64.05;101223.59;2103354;28;20048;-72
2022/05/21 04:48:42;;;;;;;8.55;2.58;;;;;;;19.68;64.01;101231.66;2103655;28;20044;-72
2022/05/21 04:50:07;;;;;;;7.47;1.90;;;;;;;19.65;64.15;101220.09;2103106;28;20141;-72
2022/05/21 04:51:29;;;;;;;8.63;2.00;;;;;;;19.61;63.81;101226.41;2103590;28;20101;-72
2022/05/21 04:52:52;;;;;;;11.15;2.45;;;;;;;19.58;63.90;101219.28;2103620;28;20059;-72
2022/05/21 04:54:14;;;;;;;15.52;3.58;;;;;;;19.68;63.80;101223.63;2109555;28;20040;-72
2022/05/21 04:55:36;;;;;;;10.48;2.22;;;;;;;19.81;63.52;101227.00;2105301;28;20126;-72
2022/05/21 04:57:00;;;;;;;12.25;2.00;;;;;;;19.97;63.03;101228.53;2108139;28;20133;-72
2022/05/21 04:58:21;;;;;;;9.23;2.28;;;;;;;20.47;62.50;101227.75;2111898;28;20517;-72
2022/05/21 04:59:44;;;;;;;11.73;2.38;;;;;;;21.06;61.10;101220.38;2111797;28;20085;-72
2022/05/21 05:01:05;;;;;;;7.03;2.50;;;;;;;21.55;59.85;101224.72;2111824;28;20051;-72
2022/05/21 05:02:29;;;;;;;7.20;1.70;;;;;;;21.62;59.13;101216.50;2102417;28;20036;-72
2022/05/21 05:03:51;;;;;;;10.98;2.38;;;;;;;21.70;59.24;101219.00;2103306;28;20423;-72
2022/05/21 05:05:15;;;;;;;8.57;2.20;;;;;;;21.67;59.07;101221.75;2108979;28;20072;-72
2022/05/21 05:06:38;;;;;;;7.95;3.03;;;;;;;21.45;59.40;101216.88;2103465;28;20036;-72
2022/05/21 05:08:00;;;;;;;7.07;1.67;;;;;;;21.47;59.72;101216.81;2109387;28;20104;-72
2022/05/21 05:09:24;;;;;;;8.35;2.15;;;;;;;21.48;59.66;101215.91;2111929;28;20043;-73
2022/05/21 05:10:47;;;;;;;5.28;1.92;;;;;;;21.56;59.56;101213.94;2111130;28;20055;-72
2022/05/21 05:12:12;;;;;;;6.43;1.70;;;;;;;21.85;58.95;101216.88;2110344;28;20071;-73
2022/05/21 05:13:36;;;;;;;7.35;1.85;;;;;;;22.23;58.07;101215.97;2096871;28;20505;-72
2022/05/21 05:14:59;;;;;;;7.55;1.83;;;;;;;22.47;57.20;101216.25;2109436;28;20573;-72
2022/05/21 05:16:23;;;;;;;6.80;2.10;;;;;;;22.41;57.06;101208.34;2105924;28;20082;-72
2022/05/21 05:17:44;;;;;;;7.32;2.10;;;;;;;22.60;56.50;101212.31;2106210;28;20142;-72
2022/05/21 05:19:07;;;;;;;13.20;2.00;;;;;;;22.53;56.47;101208.00;2102823;28;20531;-72
2022/05/21 05:20:30;;;;;;;8.95;2.00;;;;;;;22.54;56.40;101213.34;2103327;28;20442;-73
2022/05/21 05:21:53;;;;;;;8.00;2.10;;;;;;;23.09;55.57;101216.38;2105933;28;20048;-72
2022/05/21 05:23:17;;;;;;;14.63;2.42;;;;;;;23.68;54.22;101212.81;2104718;28;20060;-72
2022/05/21 05:24:40;;;;;;;7.72;2.45;;;;;;;24.23;52.31;101211.91;2099474;28;20084;-72
2022/05/21 05:26:03;;;;;;;8.18;1.73;;;;;;;24.60;51.59;101216.06;2109113;28;20100;-72
2022/05/21 05:27:27;;;;;;;8.23;1.88;;;;;;;25.00;50.94;101212.88;2113950;28;20073;-72
2022/05/21 05:28:50;;;;;;;7.20;1.90;;;;;;;25.34;50.11;101226.84;2103413;28;20130;-74
2022/05/21 05:30:12;;;;;;;8.07;1.75;;;;;;;25.57;48.99;101219.69;2103339;28;20044;-72
2022/05/21 05:31:35;;;;;;;7.75;2.20;;;;;;;25.76;48.31;101221.63;2100959;28;20075;-73
2022/05/21 05:32:56;;;;;;;9.18;1.80;;;;;;;25.94;47.70;101228.13;2100626;28;20131;-72
2022/05/21 05:34:19;;;;;;;7.70;1.80;;;;;;;26.11;47.39;101224.75;2108778;28;20050;-72
2022/05/21 05:35:42;;;;;;;7.22;1.90;;;;;;;26.30;46.24;101216.78;2102228;28;20046;-72
2022/05/21 05:37:05;;;;;;;7.15;1.73;;;;;;;26.55;45.71;101228.31;2104625;28;20052;-72
2022/05/21 05:38:28;;;;;;;4.55;1.70;;;;;;;26.72;44.88;101225.75;2104680;28;20044;-70
2022/05/21 05:39:50;;;;;;;12.88;2.20;;;;;;;26.77;44.75;101236.41;2108745;28;20055;-71
2022/05/21 05:41:13;;;;;;;8.02;2.55;;;;;;;26.89;44.40;101225.94;2103216;28;20107;-70
2022/05/21 05:42:38;;;;;;;9.73;2.13;;;;;;;26.86;44.25;101217.00;2108900;28;20084;-70
2022/05/21 05:44:04;;;;;;;6.57;1.42;;;;;;;26.98;44.22;101221.06;2111900;28;20052;-70
2022/05/21 05:45:25;;;;;;;8.68;2.03;;;;;;;27.05;43.94;101226.09;2103193;28;20052;-73
2022/05/21 05:46:48;;;;;;;7.22;1.75;;;;;;;27.24;43.81;101221.59;2108786;28;20515;-70
2022/05/21 05:48:11;;;;;;;5.97;2.33;;;;;;;27.34;43.21;101216.66;2102489;28;20427;-72
2022/05/21 05:49:33;;;;;;;7.13;1.85;;;;;;;27.43;43.00;101224.38;2110689;28;20502;-73
2022/05/21 05:50:57;;;;;;;6.93;2.28;;;;;;;27.54;43.00;101222.06;2106557;28;20052;-73
2022/05/21 05:52:20;;;;;;;8.52;1.90;;;;;;;27.59;42.80;101225.41;2098233;28;20064;-73
2022/05/21 05:53:43;;;;;;;14.52;2.78;;;;;;;27.60;42.81;101219.03;2097605;28;20097;-72
2022/05/21 05:55:06;;;;;;;5.75;2.10;;;;;;;27.70;42.67;101219.47;2097547;28;20040;-73
2022/05/21 05:56:29;;;;;;;11.02;1.85;;;;;;;27.84;42.45;101218.78;2098115;28;20639;-72
2022/05/21 05:57:54;;;;;;;11.63;3.22;;;;;;;27.85;42.46;101223.28;2102933;28;20089;-73
2022/05/21 06:00:55;;;;;;;5.80;1.70;;;;;;;28.02;42.38;101218.81;2096758;28;20105;-73
2022/05/21 06:03:58;;;;;;;10.00;2.03;;;;;;;28.30;41.99;101218.31;2105072;28;20089;-71
2022/05/21 06:05:23;;;;;;;6.50;1.73;;;;;;;28.37;41.83;101224.31;2108766;28;20063;-71
2022/05/21 06:06:48;;;;;;;5.38;1.83;;;;;;;28.37;41.77;101229.75;2103189;28;20040;-70
2022/05/21 06:08:11;;;;;;;7.60;2.00;;;;;;;28.39;41.69;101223.28;2108853;28;20142;-70
2022/05/21 06:09:34;;;;;;;8.90;2.95;;;;;;;28.48;41.59;101219.22;2112717;27;20042;-70
2022/05/21 06:10:59;;;;;;;11.93;1.55;;;;;;;28.56;41.21;101225.13;2101030;28;20048;-71
2022/05/21 06:12:20;;;;;;;7.22;2.00;;;;;;;28.60;41.08;101223.16;2099808;28;20102;-71
2022/05/21 06:13:44;;;;;;;9.57;1.70;;;;;;;28.65;40.81;101227.38;2098368;28;20446;-71
2022/05/21 06:15:09;;;;;;;6.75;1.67;;;;;;;28.66;40.93;101223.72;2100552;28;20036;-71
2022/05/21 06:16:31;;;;;;;6.05;1.77;;;;;;;28.67;40.96;101222.75;2100623;28;20055;-72
2022/05/21 06:17:53;;;;;;;10.18;2.65;;;;;;;28.76;40.97;101218.69;2107282;28;20100;-72
2022/05/21 06:19:17;;;;;;;10.05;1.85;;;;;;;28.75;40.95;101230.53;2109951;28;20055;-71
2022/05/21 06:20:39;;;;;;;9.70;2.00;;;;;;;28.82;41.03;101221.97;2105458;28;20526;-72
2022/05/21 06:22:03;;;;;;;9.98;1.75;;;;;;;28.92;40.64;101211.50;2105268;28;20507;-71
2022/05/21 06:23:25;;;;;;;10.10;1.90;;;;;;;28.91;40.57;101215.16;2107588;28;20089;-72
2022/05/21 06:24:47;;;;;;;8.60;1.75;;;;;;;28.95;40.36;101222.19;2110174;28;20055;-74
2022/05/21 06:26:11;;;;;;;6.75;1.60;;;;;;;28.92;40.37;101217.81;2110889;28;20043;-72
2022/05/21 06:27:34;;;;;;;6.88;1.60;;;;;;;28.97;40.43;101222.09;2113896;28;20142;-71
2022/05/21 06:28:58;;;;;;;6.68;1.67;;;;;;;28.89;40.31;101223.38;2110282;28;20047;-72
2022/05/21 06:30:23;;;;;;;9.07;1.70;;;;;;;28.87;40.48;101230.78;2110916;28;20079;-71
2022/05/21 06:31:45;;;;;;;11.48;1.98;;;;;;;28.94;40.50;101239.47;2104452;28;20043;-72
2022/05/21 06:33:19;;;;;;;7.50;1.90;;;;;;;28.92;39.95;101236.84;2098035;28;20052;-71
2022/05/21 06:34:42;;;;;;;7.15;1.67;;;;;;;28.99;40.14;101234.66;2094731;28;20040;-72
2022/05/21 06:36:07;;;;;;;5.95;1.52;;;;;;;29.11;39.80;101230.41;2099991;28;20515;-71
2022/05/21 06:37:30;;;;;;;11.70;1.65;;;;;;;29.17;39.74;101230.94;2108704;28;20058;-71